Time;durP1;ratioP1;P1;durP2;ratioP2;P2;SDS_P1;SDS_P2;PMS_P1;PMS_P2;Temp;Humidity;BMP_temperature;BMP_pressure;BME280_temperature;BME280_humidity;BME280_pressure;Samples;Min_cycle;Max_cycle;Signal;HPM_P1;HPM_P2
2023/09/02 00:00:43;;;;;;;17.73;15.88;;;15.30;99.90;;;;;;6270719;22;20008;-92
2023/09/02 00:03:09;;;;;;;19.20;17.30;;;15.30;99.90;;;;;;6246575;22;20086;-92
2023/09/02 00:05:35;;;;;;;19.98;18.05;;;15.40;99.90;;;;;;6247493;22;20492;-93
2023/09/02 00:08:00;;;;;;;18.48;16.77;;;15.30;99.90;;;;;;6246256;22;20039;-92
2023/09/02 00:10:26;;;;;;;17.35;15.73;;;15.30;99.90;;;;;;6245204;22;20091;-92
2023/09/02 00:12:52;;;;;;;20.40;18.40;;;15.30;99.90;;;;;;6220102;22;20047;-92
2023/09/02 00:15:17;;;;;;;20.95;19.05;;;15.20;99.90;;;;;;6272460;22;20007;-92
2023/09/02 00:17:43;;;;;;;20.40;18.40;;;15.30;99.90;;;;;;6219917;22;20079;-93
2023/09/02 00:20:09;;;;;;;20.02;18.10;;;15.30;99.90;;;;;;6272262;22;20075;-92
2023/09/02 00:22:35;;;;;;;21.70;19.48;;;15.30;99.90;;;;;;6245480;22;20027;-92
2023/09/02 00:25:01;;;;;;;21.63;19.63;;;15.30;99.90;;;;;;6220126;22;20011;-92
2023/09/02 00:27:29;;;;;;;19.33;17.58;;;15.30;99.90;;;;;;6219961;22;20040;-92
2023/09/02 00:29:54;;;;;;;21.60;19.70;;;15.30;99.90;;;;;;6245508;22;20054;-92
2023/09/02 00:32:20;;;;;;;20.20;18.23;;;15.20;99.90;;;;;;6244415;22;20388;-91
2023/09/02 00:34:46;;;;;;;20.55;18.65;;;15.20;99.90;;;;;;6245529;22;20039;-91
2023/09/02 00:37:12;;;;;;;21.00;19.00;;;15.30;99.90;;;;;;6245910;22;20012;-91
2023/09/02 00:39:38;;;;;;;20.60;18.60;;;15.20;99.90;;;;;;6245218;22;20065;-93
2023/09/02 00:42:06;;;;;;;20.77;18.83;;;15.20;99.90;;;;;;6245517;22;20087;-92
2023/09/02 00:44:35;;;;;;;21.48;19.42;;;15.20;99.90;;;;;;6221504;22;20011;-91
2023/09/02 00:47:02;;;;;;;19.30;17.75;;;15.20;99.90;;;;;;6246765;22;20383;-92
2023/09/02 00:49:28;;;;;;;21.90;19.80;;;15.20;99.90;;;;;;6221662;22;20022;-90
2023/09/02 00:51:53;;;;;;;20.55;18.52;;;15.20;99.90;;;;;;6246899;22;20011;-91
2023/09/02 00:54:19;;;;;;;19.23;17.52;;;15.30;99.90;;;;;;6275957;22;20022;-91
2023/09/02 00:56:45;;;;;;;19.98;18.27;;;15.20;99.90;;;;;;6248677;22;20080;-92
2023/09/02 00:59:11;;;;;;;20.08;18.30;;;15.30;99.90;;;;;;6276970;22;20043;-93
2023/09/02 01:01:40;;;;;;;19.30;17.60;;;15.30;99.90;;;;;;6276143;22;20029;-93
2023/09/02 01:04:06;;;;;;;21.13;19.13;;;15.20;99.90;;;;;;6222436;22;20463;-92
2023/09/02 01:06:34;;;;;;;22.50;20.33;;;15.30;99.90;;;;;;6248590;22;20062;-91
2023/09/02 01:09:00;;;;;;;21.70;19.48;;;15.30;99.90;;;;;;6274152;22;20082;-91
2023/09/02 01:11:26;;;;;;;23.30;21.05;;;15.30;99.90;;;;;;6247230;22;20086;-91
2023/09/02 01:13:52;;;;;;;22.65;20.45;;;15.30;99.90;;;;;;6276118;22;20022;-92
2023/09/02 01:16:18;;;;;;;20.88;19.08;;;15.30;99.90;;;;;;6222545;22;20015;-92
2023/09/02 01:18:44;;;;;;;21.73;19.80;;;15.30;99.90;;;;;;6247718;22;20022;-92
2023/09/02 01:21:37;;;;;;;22.67;20.65;;;15.30;99.90;;;;;;6221693;22;20023;-91
2023/09/02 01:24:15;;;;;;;20.95;19.05;;;15.30;99.90;;;;;;6247645;22;20011;-92
2023/09/02 01:26:56;;;;;;;23.27;20.98;;;15.40;99.90;;;;;;6273687;22;20502;-91
2023/09/02 01:29:28;;;;;;;21.77;19.50;;;15.30;99.90;;;;;;6273736;22;20026;-93
2023/09/02 01:31:54;;;;;;;22.42;20.17;;;15.40;99.90;;;;;;6220285;22;20019;-90
2023/09/02 01:34:21;;;;;;;23.33;21.13;;;15.30;99.90;;;;;;6221078;22;20023;-92
2023/09/02 01:36:51;;;;;;;22.30;20.20;;;15.30;99.90;;;;;;6220728;22;20022;-92
2023/09/02 01:39:19;;;;;;;23.50;21.30;;;15.30;99.90;;;;;;6221521;22;20023;-92
2023/09/02 01:41:46;;;;;;;25.02;22.60;;;15.30;99.90;;;;;;6246785;22;20031;-93
2023/09/02 01:44:13;;;;;;;25.65;23.15;;;15.20;99.90;;;;;;6224609;22;20008;-90
2023/09/02 01:46:39;;;;;;;26.52;23.75;;;15.30;99.90;;;;;;6282318;22;20072;-93
2023/09/02 01:49:05;;;;;;;26.38;23.67;;;15.30;99.90;;;;;;6264578;22;20007;-96
2023/09/02 01:51:46;;;;;;;25.17;22.87;;;15.20;99.90;;;;;;6191396;22;21118;-96
2023/09/02 01:54:12;;;;;;;26.48;23.98;;;15.20;99.90;;;;;;6190351;23;20017;-93
2023/09/02 01:56:38;;;;;;;26.52;23.90;;;15.30;99.90;;;;;;6214618;23;20024;-92
2023/09/02 01:59:04;;;;;;;28.13;25.33;;;15.30;99.90;;;;;;6162971;23;20024;-92
2023/09/02 02:01:29;;;;;;;31.65;27.00;;;15.30;99.90;;;;;;6214643;23;20334;-92
2023/09/02 02:04:24;;;;;;;29.45;26.50;;;15.20;99.90;;;;;;6213758;23;20394;-91
2023/09/02 02:06:55;;;;;;;28.38;25.55;;;15.20;99.90;;;;;;6201002;23;20020;-92
2023/09/02 02:09:32;;;;;;;28.08;25.13;;;15.20;99.90;;;;;;6189521;23;20091;-93
2023/09/02 02:12:00;;;;;;;26.23;23.65;;;15.20;99.90;;;;;;6186011;23;20058;-92
2023/09/02 02:14:31;;;;;;;27.38;24.75;;;15.20;99.90;;;;;;6159373;23;20017;-91
2023/09/02 02:16:57;;;;;;;30.00;26.95;;;15.20;99.90;;;;;;6187341;23;20016;-92
2023/09/02 02:19:22;;;;;;;32.22;28.98;;;15.10;99.90;;;;;;6187655;23;20047;-93
2023/09/02 02:21:48;;;;;;;30.92;27.55;;;15.20;99.90;;;;;;6190807;23;20015;-92
2023/09/02 02:24:14;;;;;;;29.45;26.30;;;15.10;99.90;;;;;;6212054;23;20021;-91
2023/09/02 02:26:40;;;;;;;31.73;28.17;;;15.10;99.90;;;;;;6192014;23;20012;-93
2023/09/02 02:29:06;;;;;;;30.15;27.10;;;15.10;99.90;;;;;;6219238;23;20028;-93
2023/09/02 02:31:33;;;;;;;30.52;27.52;;;15.20;99.90;;;;;;6212817;23;20020;-92
2023/09/02 02:33:58;;;;;;;32.13;28.50;;;15.20;99.90;;;;;;6161326;23;20020;-92
2023/09/02 02:36:24;;;;;;;31.35;27.95;;;15.20;99.90;;;;;;6184205;23;20019;-92
2023/09/02 02:38:50;;;;;;;30.42;27.45;;;15.30;99.90;;;;;;6212202;23;20019;-92
2023/09/02 02:41:15;;;;;;;30.60;27.42;;;15.20;99.90;;;;;;6160308;23;20091;-92
2023/09/02 02:43:41;;;;;;;29.77;26.88;;;15.20;99.90;;;;;;6210361;23;20479;-93
2023/09/02 02:46:06;;;;;;;27.98;25.33;;;15.30;99.90;;;;;;6210252;23;20450;-91
2023/09/02 02:48:32;;;;;;;29.85;27.02;;;15.20;99.90;;;;;;6212042;23;20009;-92
2023/09/02 02:50:58;;;;;;;29.13;26.20;;;15.30;99.90;;;;;;6160417;23;20423;-92
2023/09/02 02:53:24;;;;;;;29.27;26.30;;;15.20;99.90;;;;;;6185788;23;20019;-92
2023/09/02 02:55:50;;;;;;;31.65;28.42;;;15.20;99.90;;;;;;6184594;23;20052;-91
2023/09/02 02:58:16;;;;;;;29.63;26.80;;;15.30;99.90;;;;;;6210170;23;20044;-91
2023/09/02 03:00:43;;;;;;;32.03;28.65;;;15.30;99.90;;;;;;6183837;23;20023;-90
2023/09/02 03:03:10;;;;;;;31.88;28.77;;;15.30;99.90;;;;;;6160846;23;20008;-91
2023/09/02 03:05:39;;;;;;;31.43;28.13;;;15.20;99.90;;;;;;6184885;23;20092;-91
2023/09/02 03:08:09;;;;;;;30.33;27.25;;;15.30;99.90;;;;;;6185732;23;20415;-91
2023/09/02 03:10:35;;;;;;;29.52;26.63;;;15.20;99.90;;;;;;6186710;23;20017;-92
2023/09/02 03:13:05;;;;;;;30.95;27.88;;;15.30;99.90;;;;;;6186616;23;20043;-92
2023/09/02 03:15:31;;;;;;;30.05;27.05;;;15.20;99.90;;;;;;6161962;23;20036;-92
2023/09/02 03:17:57;;;;;;;30.75;27.85;;;15.30;99.90;;;;;;6187715;23;20015;-92
2023/09/02 03:20:22;;;;;;;32.05;28.85;;;15.30;99.90;;;;;;6162195;23;20016;-92
2023/09/02 03:22:48;;;;;;;30.77;27.77;;;15.30;99.90;;;;;;6186816;23;20009;-92
2023/09/02 03:25:14;;;;;;;31.67;28.45;;;;;;;;;;6186076;23;20016;-91
2023/09/02 03:27:40;;;;;;;31.85;28.90;;;15.40;99.90;;;;;;6183066;23;20020;-92
2023/09/02 03:30:07;;;;;;;30.08;26.83;;;15.30;99.90;;;;;;6183900;23;20104;-92
2023/09/02 03:32:33;;;;;;;27.90;25.23;;;15.30;99.90;;;;;;6186808;23;20070;-92
2023/09/02 03:34:58;;;;;;;31.77;28.75;;;15.20;99.90;;;;;;6162970;23;20044;-92
2023/09/02 03:37:24;;;;;;;31.67;28.45;;;15.30;99.90;;;;;;6184396;23;20087;-91
2023/09/02 03:39:51;;;;;;;31.05;28.15;;;15.40;99.90;;;;;;6160013;23;20039;-92
2023/09/02 03:42:16;;;;;;;32.83;29.55;;;15.30;99.90;;;;;;6184689;23;20028;-91
2023/09/02 03:44:42;;;;;;;31.27;28.05;;;15.30;99.90;;;;;;6184607;23;20023;-90
2023/09/02 03:47:08;;;;;;;31.85;28.65;;;15.20;99.90;;;;;;6212918;23;20009;-91
2023/09/02 03:49:33;;;;;;;32.10;29.08;;;15.40;99.90;;;;;;6160600;23;20043;-91
2023/09/02 03:51:59;;;;;;;32.25;28.85;;;15.30;99.90;;;;;;6209979;23;20349;-89
2023/09/02 03:54:25;;;;;;;34.35;30.85;;;15.30;99.90;;;;;;6184835;23;20017;-91
2023/09/02 03:56:50;;;;;;;32.75;29.45;;;15.20;99.90;;;;;;6184293;23;20015;-90
2023/09/02 03:59:16;;;;;;;31.75;28.38;;;15.30;99.90;;;;;;6208886;23;20346;-91
2023/09/02 04:01:41;;;;;;;30.63;27.63;;;15.30;99.90;;;;;;6157570;23;20032;-91
2023/09/02 04:04:07;;;;;;;31.80;28.70;;;15.40;99.90;;;;;;6206781;23;20467;-90
2023/09/02 04:06:33;;;;;;;30.27;27.15;;;15.30;99.90;;;;;;6182262;23;20008;-91
2023/09/02 04:08:58;;;;;;;29.02;26.23;;;15.40;99.90;;;;;;6182063;23;20009;-91
2023/09/02 04:11:24;;;;;;;29.65;26.95;;;15.30;99.90;;;;;;6156708;23;20024;-91
2023/09/02 04:13:50;;;;;;;32.58;29.10;;;15.30;99.90;;;;;;6181941;23;20105;-91
2023/09/02 04:16:16;;;;;;;33.15;29.73;;;15.30;99.90;;;;;;6182564;23;20019;-91
2023/09/02 04:18:41;;;;;;;31.55;28.23;;;15.30;99.90;;;;;;6209129;23;20012;-91
2023/09/02 04:21:10;;;;;;;30.73;27.73;;;15.30;99.90;;;;;;6207093;23;20450;-93
2023/09/02 04:23:36;;;;;;;31.38;28.27;;;15.20;99.90;;;;;;6182593;23;20017;-92
2023/09/02 04:26:04;;;;;;;29.95;27.00;;;15.40;99.90;;;;;;6181670;23;20498;-92
2023/09/02 04:28:30;;;;;;;32.58;29.17;;;15.30;99.90;;;;;;6182265;23;20016;-92
2023/09/02 04:30:57;;;;;;;32.10;28.90;;;15.30;99.90;;;;;;6183632;23;20025;-91
2023/09/02 04:33:24;;;;;;;32.80;29.17;;;15.30;99.90;;;;;;6182648;23;20013;-92
2023/09/02 04:35:49;;;;;;;31.83;28.45;;;15.30;99.90;;;;;;6209019;23;20605;-93
2023/09/02 04:38:15;;;;;;;29.05;26.35;;;15.30;99.90;;;;;;6182499;23;20044;-92
2023/09/02 04:40:43;;;;;;;31.00;27.90;;;15.40;99.90;;;;;;6156323;23;20080;-92
2023/09/02 04:43:13;;;;;;;30.92;27.67;;;15.40;99.90;;;;;;6183149;23;20016;-94
2023/09/02 04:45:40;;;;;;;31.27;28.15;;;15.30;99.90;;;;;;6158361;23;20723;-91
2023/09/02 04:48:07;;;;;;;31.70;28.67;;;15.30;99.90;;;;;;6181873;23;20326;-91
2023/09/02 04:50:37;;;;;;;31.40;28.23;;;15.20;99.90;;;;;;6158280;23;20020;-91
2023/09/02 04:53:03;;;;;;;32.35;28.88;;;15.30;99.90;;;;;;6206947;23;20239;-92
2023/09/02 04:55:29;;;;;;;32.53;29.02;;;15.20;99.90;;;;;;6182051;23;20033;-90
2023/09/02 04:57:56;;;;;;;31.08;27.88;;;15.40;99.90;;;;;;6208593;23;20027;-91
2023/09/02 05:00:28;;;;;;;34.00;30.50;;;15.20;99.90;;;;;;6182220;23;20020;-90
2023/09/02 05:02:54;;;;;;;32.35;28.30;;;15.30;99.90;;;;;;6184092;23;20052;-91
2023/09/02 05:05:22;;;;;;;31.70;28.35;;;15.30;99.90;;;;;;6159435;23;20004;-92
2023/09/02 05:07:48;;;;;;;31.92;28.55;;;15.20;99.90;;;;;;6159176;23;20125;-92
2023/09/02 05:10:14;;;;;;;30.73;27.52;;;15.30;99.90;;;;;;6168114;23;20009;-93
2023/09/02 05:12:41;;;;;;;34.28;30.70;;;15.40;99.90;;;;;;6190652;23;20016;-91
2023/09/02 05:15:07;;;;;;;31.33;28.02;;;15.30;99.90;;;;;;6159952;23;20043;-92
2023/09/02 05:17:33;;;;;;;32.95;29.35;;;15.40;99.90;;;;;;6183899;23;20067;-91
2023/09/02 05:20:00;;;;;;;32.17;28.80;;;15.40;99.90;;;;;;6160080;23;20009;-91
2023/09/02 05:22:26;;;;;;;30.77;27.77;;;15.30;99.90;;;;;;6160876;23;20016;-93
2023/09/02 05:24:52;;;;;;;31.98;28.48;;;15.30;99.90;;;;;;6160781;23;20009;-91
2023/09/02 05:27:20;;;;;;;31.40;28.05;;;15.40;99.90;;;;;;6183987;23;20009;-91
2023/09/02 05:29:45;;;;;;;31.83;28.55;;;15.30;99.90;;;;;;6184642;23;20013;-92
2023/09/02 05:32:13;;;;;;;31.98;28.67;;;15.40;99.90;;;;;;6211407;23;20478;-92
2023/09/02 05:34:39;;;;;;;;;;;15.40;99.90;;;;;;6184382;23;20537;-90
2023/09/02 05:37:05;;;;;;;36.25;28.65;;;15.40;99.90;;;;;;6189602;23;19912;-92
2023/09/02 05:39:30;;;;;;;32.95;29.40;;;15.50;99.90;;;;;;6187234;23;20087;-92
2023/09/02 05:41:56;;;;;;;33.97;30.27;;;15.30;99.90;;;;;;6213817;23;20019;-91
2023/09/02 05:44:22;;;;;;;35.97;31.52;;;15.30;99.90;;;;;;6185167;23;20015;-94
2023/09/02 08:09:20;;;;;;;35.83;28.60;;;16.00;99.90;;;;;;6246900;22;20039;-96
2023/09/02 08:11:46;;;;;;;29.85;26.45;;;16.10;99.90;;;;;;6235438;23;20051;-96
2023/09/02 08:14:12;;;;;;;36.83;28.75;;;16.10;99.90;;;;;;6245836;22;20020;-96
2023/09/02 08:16:37;;;;;;;33.22;27.98;;;16.20;99.90;;;;;;6210504;23;20027;-96
2023/09/02 08:19:03;;;;;;;32.85;26.92;;;16.40;99.90;;;;;;6215000;23;20000;-96
2023/09/02 08:21:29;;;;;;;34.33;27.45;;;16.40;99.90;;;;;;6244446;22;19996;-96
2023/09/02 08:23:55;;;;;;;31.50;26.20;;;16.30;99.90;;;;;;6214246;23;20001;-95
2023/09/02 08:26:21;;;;;;;31.95;27.40;;;16.40;99.90;;;;;;6244618;22;20023;-96
2023/09/02 08:28:46;;;;;;;29.58;26.35;;;16.40;99.90;;;;;;6246089;22;20456;-96
2023/09/02 08:31:18;;;;;;;32.60;26.95;;;16.30;99.90;;;;;;6245708;23;20023;-95
2023/09/02 08:33:44;;;;;;;31.33;27.05;;;16.40;99.90;;;;;;6221132;23;20000;-96
2023/09/02 08:36:17;;;;;;;31.33;25.67;;;16.50;99.90;;;;;;6240352;23;20437;-92
2023/09/02 08:38:43;;;;;;;30.40;24.88;;;16.50;99.90;;;;;;6228009;23;20000;-93
2023/09/02 08:41:14;;;;;;;29.15;26.05;;;16.60;99.90;;;;;;6217291;23;20020;-94
2023/09/02 08:43:40;;;;;;;29.23;24.88;;;16.80;99.90;;;;;;6192769;23;20079;-93
2023/09/02 08:46:10;;;;;;;32.42;24.95;;;16.70;99.90;;;;;;6192958;23;20012;-93
2023/09/02 08:48:41;;;;;;;27.48;23.77;;;16.80;99.90;;;;;;6218454;23;20475;-93
2023/09/02 08:51:08;;;;;;;29.70;23.10;;;16.80;99.90;;;;;;6217642;23;20476;-92
2023/09/02 08:53:34;;;;;;;28.92;23.67;;;16.70;99.90;;;;;;6243770;23;20008;-93
2023/09/02 08:56:01;;;;;;;29.60;23.02;;;16.70;99.90;;;;;;6244726;23;20016;-92
2023/09/02 08:58:27;;;;;;;23.52;20.40;;;16.70;99.90;;;;;;6243069;23;20008;-93
2023/09/02 09:00:53;;;;;;;29.25;22.42;;;16.60;99.90;;;;;;6217483;23;20298;-93
2023/09/02 09:03:20;;;;;;;23.95;21.33;;;16.70;99.90;;;;;;6219634;23;20465;-92
2023/09/02 09:05:48;;;;;;;26.67;20.67;;;16.70;99.90;;;;;;6247560;23;20052;-93
2023/09/02 09:08:14;;;;;;;;;;;16.60;99.90;;;;;;6246716;22;20008;-92
2023/09/02 09:10:42;;;;;;;24.88;19.10;;;16.70;99.90;;;;;;6246553;22;19922;-93
2023/09/02 09:13:11;;;;;;;23.67;19.35;;;16.80;99.90;;;;;;6245695;23;20023;-94
2023/09/02 09:15:37;;;;;;;22.02;18.90;;;16.80;99.90;;;;;;6247279;23;20023;-93
2023/09/02 09:18:03;;;;;;;21.30;19.13;;;16.80;99.90;;;;;;6245355;23;20012;-92
2023/09/02 09:20:31;;;;;;;23.75;19.80;;;16.80;99.90;;;;;;6245159;23;20449;-94
2023/09/02 09:22:56;;;;;;;22.30;19.23;;;16.70;99.90;;;;;;6218847;23;20013;-94
2023/09/02 09:25:22;;;;;;;22.65;18.45;;;16.80;99.90;;;;;;6219286;23;20065;-94
2023/09/02 09:27:49;;;;;;;20.33;18.10;;;16.90;99.90;;;;;;6246447;23;20011;-92
2023/09/02 09:30:28;;;;;;;24.67;19.30;;;16.90;99.90;;;;;;6224222;23;20103;-92
2023/09/02 09:33:01;;;;;;;20.70;18.55;;;16.70;99.90;;;;;;6228333;23;20016;-93
2023/09/02 09:35:28;;;;;;;23.00;18.60;;;16.80;99.90;;;;;;6220768;23;20047;-91
2023/09/02 09:37:54;;;;;;;23.13;18.73;;;16.70;99.90;;;;;;6225278;23;20015;-92
2023/09/02 09:40:31;;;;;;;23.45;17.67;;;16.70;99.90;;;;;;6219425;23;20099;-93
2023/09/02 09:42:58;;;;;;;23.43;19.30;;;16.70;99.90;;;;;;6219001;23;20016;-94
2023/09/02 09:45:24;;;;;;;24.70;18.70;;;16.70;99.90;;;;;;6223283;23;20020;-94
2023/09/02 09:47:49;;;;;;;22.27;19.13;;;16.90;99.90;;;;;;6246808;23;20050;-94
2023/09/02 09:50:16;;;;;;;22.63;18.90;;;16.90;99.90;;;;;;6244403;23;20482;-93
2023/09/02 09:53:09;;;;;;;20.95;18.35;;;17.00;99.90;;;;;;6244577;22;20468;-93
2023/09/02 09:55:36;;;;;;;21.02;18.58;;;17.10;99.90;;;;;;6241155;23;20012;-94
2023/09/02 09:58:03;;;;;;;21.02;18.85;;;17.20;99.90;;;;;;6250745;22;20009;-94
2023/09/02 10:00:29;;;;;;;22.33;19.48;;;17.20;99.90;;;;;;6257546;23;20063;-94
2023/09/02 10:02:59;;;;;;;21.60;18.80;;;17.30;99.90;;;;;;6250843;23;20027;-92
2023/09/02 10:05:29;;;;;;;23.98;18.83;;;17.40;99.90;;;;;;6244928;23;20059;-92
2023/09/02 10:08:03;;;;;;;22.67;18.85;;;17.50;99.90;;;;;;6243116;23;20005;-93
2023/09/02 10:10:37;;;;;;;22.67;18.65;;;17.60;99.90;;;;;;6219741;23;20020;-93
2023/09/02 10:13:04;;;;;;;20.90;18.65;;;17.70;99.90;;;;;;6229516;23;20031;-92
2023/09/02 10:15:31;;;;;;;24.42;19.70;;;18.00;99.90;;;;;;6226110;23;20025;-93
2023/09/02 10:17:59;;;;;;;22.50;19.55;;;18.00;99.90;;;;;;6251426;23;20016;-93
2023/09/02 10:20:27;;;;;;;20.90;18.63;;;18.10;99.90;;;;;;6245413;22;20008;-93
2023/09/02 10:22:54;;;;;;;21.17;19.15;;;18.10;99.90;;;;;;6217029;23;20023;-94
2023/09/02 10:25:29;;;;;;;25.30;20.98;;;17.80;99.90;;;;;;6243217;23;20031;-92
2023/09/02 10:28:06;;;;;;;21.15;18.95;;;17.90;99.90;;;;;;6240727;23;20011;-93
2023/09/02 21:25:22;;;;;;;4.55;4.13;;;14.90;99.90;;;;;;6275111;22;20039;-95
2023/09/02 21:27:48;;;;;;;5.43;4.40;;;14.90;99.90;;;;;;6226483;22;20020;-93
2023/09/02 21:30:13;;;;;;;7.85;4.90;;;14.90;99.90;;;;;;6224090;22;20073;-91
2023/09/02 21:32:40;;;;;;;5.78;4.75;;;14.80;99.90;;;;;;6275525;22;20240;-93
2023/09/02 21:35:09;;;;;;;5.40;4.90;;;14.80;99.90;;;;;;6223277;22;20019;-92
2023/09/02 21:37:35;;;;;;;7.75;5.05;;;14.80;99.90;;;;;;6223110;22;20471;-93
2023/09/02 21:40:02;;;;;;;5.47;4.97;;;14.80;99.90;;;;;;6248246;22;20019;-92
2023/09/02 21:42:31;;;;;;;5.10;4.70;;;;;;;;;;6247339;22;20027;-92
2023/09/02 21:44:57;;;;;;;6.53;5.05;;;;;;;;;;6273602;22;20008;-93
2023/09/02 21:47:23;;;;;;;7.00;5.00;;;;;;;;;;6221454;22;20034;-92
2023/09/02 21:49:49;;;;;;;4.95;4.40;;;;;;;;;;6221158;22;20015;-93
2023/09/02 21:52:16;;;;;;;5.85;4.78;;;;;;;;;;6220727;22;20258;-92
2023/09/02 21:54:42;;;;;;;6.60;5.40;;;;;;;;;;6246037;22;20059;-92
2023/09/02 21:57:08;;;;;;;5.50;4.90;;;;;;;;;;6245869;22;20186;-92
2023/09/02 21:59:34;;;;;;;5.80;5.18;;;;;;;;;;6273982;22;20012;-92
2023/09/02 22:02:00;;;;;;;5.57;4.97;;;;;;;;;;6221507;22;20099;-93
2023/09/02 22:04:26;;;;;;;5.90;5.40;;;;;;;;;;6222571;22;20044;-92
2023/09/02 22:06:53;;;;;;;6.07;5.47;;;;;;;;;;6246696;22;20016;-92
2023/09/02 22:09:19;;;;;;;6.20;5.60;;;;;;;;;;6224240;22;20011;-94
2023/09/02 22:11:45;;;;;;;6.28;5.50;;;;;;;;;;6248847;22;20094;-95
2023/09/02 22:14:11;;;;;;;5.53;5.03;;;;;;;;;;6248439;22;20008;-93
2023/09/02 22:16:40;;;;;;;5.65;5.15;;;;;;;;;;6255451;22;20020;-93
2023/09/02 22:19:06;;;;;;;6.38;5.40;;;;;;;;;;6231926;22;20012;-92
2023/09/02 22:21:32;;;;;;;5.53;5.00;;;;;;;;;;6222047;22;20012;-91
2023/09/02 22:23:59;;;;;;;6.28;5.68;;;;;;;;;;6275241;22;20018;-95
2023/09/02 22:26:25;;;;;;;5.57;5.07;;;;;;;;;;6247928;22;20035;-92
2023/09/02 22:28:51;;;;;;;7.18;5.93;;;;;;;;;;6274936;22;20012;-93
2023/09/02 22:31:17;;;;;;;6.20;5.15;;;;;;;;;;6246951;22;20016;-94
2023/09/02 22:33:43;;;;;;;5.57;5.05;;;;;;;;;;6220456;22;20015;-90
2023/09/02 22:36:09;;;;;;;6.47;5.97;;;;;;;;;;6221332;22;20018;-94
2023/09/02 22:38:39;;;;;;;6.25;5.65;;;;;;;;;;6247218;22;20111;-91
2023/09/02 22:41:05;;;;;;;5.93;5.38;;;;;;;;;;6222647;22;20015;-94
2023/09/02 22:43:31;;;;;;;7.22;6.40;;;;;;;;;;6256800;22;20472;-96
2023/09/02 22:45:57;;;;;;;7.05;5.95;;;;;;;;;;6273867;22;20150;-94
2023/09/02 22:48:23;;;;;;;6.18;5.60;;;;;;;;;;6223559;22;20015;-93
2023/09/02 22:50:49;;;;;;;7.28;6.68;;;;;;;;;;6255673;22;20080;-94
2023/09/02 22:53:16;;;;;;;6.28;5.68;;;;;;;;;;6255032;22;20018;-96
2023/09/02 22:55:42;;;;;;;8.20;6.30;;;;;;;;;;6256513;22;20015;-93
2023/09/02 22:58:09;;;;;;;6.38;5.78;;;;;;;;;;6259591;22;20073;-94
2023/09/02 23:00:36;;;;;;;7.15;6.20;;;;;;;;;;6232178;22;20012;-94
2023/09/02 23:03:06;;;;;;;6.82;6.15;;;;;;;;;;6222397;22;20317;-94
2023/09/02 23:05:32;;;;;;;7.40;6.65;;;;;;;;;;6221220;22;20043;-94
2023/09/02 23:07:59;;;;;;;6.93;6.28;;;;;;;;;;6221257;22;20012;-94
2023/09/02 23:10:25;;;;;;;7.00;6.28;;;;;;;;;;6221378;22;20019;-93
2023/09/02 23:12:52;;;;;;;6.97;6.38;;;;;;;;;;6246672;22;20016;-93
2023/09/02 23:15:19;;;;;;;6.93;6.20;;;;;;;;;;6221070;22;20027;-93
2023/09/02 23:17:45;;;;;;;8.43;6.38;;;;;;;;;;6221469;22;20014;-93
2023/09/02 23:20:12;;;;;;;7.25;6.45;;;;;;;;;;6246188;22;20023;-93
2023/09/02 23:22:38;;;;;;;6.55;5.95;;;;;;;;;;6220311;22;20082;-93
2023/09/02 23:25:05;;;;;;;7.25;6.55;;;;;;;;;;6245809;22;20475;-93
2023/09/02 23:27:31;;;;;;;7.88;6.88;;;;;;;;;;6244235;22;20011;-93
2023/09/02 23:29:57;;;;;;;9.55;8.50;;;;;;;;;;6218889;22;20170;-94
2023/09/02 23:32:26;;;;;;;10.80;9.77;;;;;;;;;;6219379;22;20337;-93
2023/09/02 23:34:55;;;;;;;11.02;9.98;;;;;;;;;;6220506;22;20460;-94
2023/09/02 23:37:21;;;;;;;11.85;10.75;;;;;;;;;;6220383;22;20061;-94
2023/09/02 23:39:47;;;;;;;11.60;10.43;;;;;;;;;;6247151;22;20012;-94
2023/09/02 23:42:14;;;;;;;10.35;9.32;;;;;;;;;;6220760;22;20043;-94
2023/09/02 23:44:40;;;;;;;12.05;10.85;;;;;;;;;;6220593;22;20107;-94
2023/09/02 23:47:06;;;;;;;12.35;11.15;;;;;;;;;;6221309;22;20018;-93
2023/09/02 23:49:32;;;;;;;13.52;12.27;;;;;;;;;;6221758;22;20012;-94
2023/09/02 23:51:58;;;;;;;12.88;11.68;;;;;;;;;;6220869;22;20022;-94
2023/09/02 23:54:24;;;;;;;13.18;11.88;;;;;;;;;;6246838;22;20016;-94
2023/09/02 23:56:50;;;;;;;12.73;11.52;;;;;;;;;;6220575;22;20015;-94
2023/09/02 23:59:16;;;;;;;13.23;11.88;;;;;;;;;;6245761;22;20012;-95
